Terminal Aerodrome Forecast
Issued by NWS Lake Charles, LA

Home | Current Version | Previous Version | Text Only | Print | Product List | Glossary On
Versions: 1 2 3 4 5 6 7 8 9 10 11 12 13 14 15
000
FTUS44 KLCH 250500
TAFLCH
TAF
KLCH 250520Z 2506/2606 00000KT 5SM BR SKC
     FM251300 VRB03KT P6SM FEW015
     FM251700 22006KT P6SM SCT040=

USA.gov is the U.S. government's official web portal to all federal, state and local government web resources and services.